x

Buoy B01 - Western Maine Shelf (44030) Wave Buoy

8:04 - Sat 23rd Jul 2016 All times are EDT. -4 hours from GMT.

  • Sig Wave height 2.3ft
  • Peak Period 6s
  • Wind
    9mph
  • Sea Temp 67°f
  • Luft Temp 68°f
  • Sea Pressure 1007.1mb
  • Buoy B01 - Western Maine Shelf
  • Buoy B01 - Western Maine Shelf

More Historic Weather Station data

Upgrade to MSW Pro to gain access to the past 30 days of data for over 8000 Wavebouys and Weather Stations around the globe.

Join Pro

Comparision Forecast

View Surf forecast
   
Sa 07/23 8:04 2.5ft 6s 9
mph
1007.1mb 67f 68f
7:04 2ft 5s 11 13 mph 1006.9mb 67f 68f
6:04 2ft 5s 9
mph
1006.4mb 67f 68f
5:04 2.5ft 6s 4
mph
1006mb 67f 68f
4:04 2.5ft 5s 2 4 mph 1005.9mb 67f 69f
3:04 2.5ft 5s 11 13 mph 1006.1mb 67f 70f
2:04 2.5ft 5s 7
mph
1005.7mb 67f 69f
1:04 2.5ft 5s 7 9 mph 1006.2mb 67f 70f
12:04 2.5ft 6s 11 13 mph 1006.5mb 67f 72f
Fr 07/22 11:04 2.5ft 5s 9 13 mph 1006.4mb 67f 74f
10:04 2.5ft 5s 7 9 mph 1005.7mb 67f 72f
9:04 2.5ft 5s 9
mph
1005.5mb 67f 73f
8:04 2ft 5s 7 9 mph 1005.3mb 67f 73f
7:04 2.5ft 5s 7
mph
1005mb 67f 76f
6:04 3ft 5s 7 9 mph 1005.1mb 67f 76f
5:04 2.5ft 5s 9
mph
1005.3mb 67f 77f
4:04 2.5ft 5s 11 13 mph 1005.3mb 67f 75f
3:04 2.5ft 5s 9 13 mph 1005.6mb 67f 72f
2:04 2.5ft 5s 11
mph
1006.3mb 67f 71f
1:04 2.5ft 5s 7 11 mph 1007mb 67f 70f
12:04 2.5ft 5s 13 16 mph 1007.6mb 67f 70f
11:04 2.5ft 5s 11
mph
1008.7mb 66f 68f
10:04 2.5ft 5s 11 13 mph 1009.3mb 66f 68f
9:04 2ft 5s 13 16 mph 1009.8mb 66f 68f
8:04 2ft 5s 16 18 mph 1010.3mb 66f 68f
7:04 2.5ft 5s 18 22 mph 1010.6mb 66f 68f
6:04 2.5ft 4s 18 20 mph 1010.8mb 66f 68f
5:04 2.5ft 5s 18 20 mph 1010.8mb 66f 68f
4:04 2.5ft 5s 16 18 mph 1011.1mb 67f 68f
3:04 2.5ft 5s 16 18 mph 1011.6mb 67f 69f
2:04 2ft 4s 13
mph
1012.2mb 67f 68f
1:04 1.3ft 4s 13 16 mph 1012.8mb 67f 70f
12:04 1ft 6s 11 13 mph 1013.3mb 67f 68f
Do 07/21 11:04 0.7ft  -  4 7 mph 1014mb 67f 67f
10:04 0.7ft  -  7
mph
1014.5mb 67f 68f
9:04 1.3ft 8s 11 13 mph 1014.4mb 67f 70f
8:04 1ft 3s 9 11 mph 1014.5mb 67f 69f
7:04 1.6ft 8s 11 13 mph 1015.1mb 67f 69f
6:04 1.6ft 3s 13 16 mph 1015.3mb 67f 70f
5:04 1.3ft 3s 16 18 mph 1016mb 67f 71f
4:04 1.3ft 3s 16 18 mph 1016.1mb 67f 70f
3:04 1ft 3s 13 16 mph 1016.5mb 67f 69f
2:04 1ft 3s 13 16 mph 1016.8mb 67f 68f
1:04 1ft 6s 11 13 mph 1017.7mb 67f 68f
12:04 1ft 8s 9 11 mph 1018.5mb 67f 67f
11:04 0.7ft  -  9 11 mph 1019.4mb 67f 66f
10:04 1.3ft 8s 7
mph
1019.4mb 67f 66f
9:04 1ft 8s 4 7 mph 1019.7mb 66f 66f
8:04 1ft 11s 4 7 mph 1019.6mb 66f 66f
7:04 1ft 8s 7
mph
1020.2mb 66f 65f
6:04 1ft 8s 7
mph
1020.1mb 66f 65f
5:04 1ft 5s 11
mph
1019.3mb 66f 65f
4:04 0.7ft  -  9 11 mph 1019mb 66f 65f
3:04 0.7ft  -  7 9 mph 1019.3mb 66f 66f
2:04 0.7ft  -  7 9 mph 1019.3mb 66f 66f
1:04 1ft 6s 7 9 mph 1019.6mb 66f 66f
12:04 1ft 6s 4 7 mph 1019.6mb 66f 67f
Mi 07/20 11:04 0.7ft  -  7
mph
1019.5mb 66f 67f
10:04 1ft 6s 7
mph
1019.4mb 66f 68f
9:04 1ft 8s 7 9 mph 1019.2mb 66f 69f
8:04 1ft 3s 9
mph
1019mb 66f 70f
7:04 1ft 3s 9 11 mph 1018.7mb 67f 71f
6:04 1.6ft 6s 13 18 mph 1018.3mb 67f 72f
5:04 1.3ft 3s 13 16 mph 1018.5mb 67f 71f
4:04 1.3ft 3s 13 18 mph 1018.6mb 66f 73f
3:04 1ft 3s 16 18 mph 1018.8mb 67f 72f
2:04 1.3ft 8s 9 11 mph 1019.1mb 67f 70f
1:04 1.3ft 6s 7 9 mph 1019.8mb 66f 70f
12:04 1.6ft 6s 7 11 mph 1020.4mb 66f 68f
11:04 1.3ft 3s 11 13 mph 1020.9mb 65f 68f
10:04 1.3ft 3s 11 13 mph 1021.2mb 65f 67f
9:04 1ft 3s 13 16 mph 1021.4mb 65f 66f
8:04 1ft 2s 11 16 mph 1021.4mb 65f 64f
7:04 1.3ft 3s 13 16 mph 1020.9mb 65f 64f
6:04 1.3ft 3s 18 20 mph 1020.6mb 65f 63f
5:04 1.3ft 3s 16 20 mph 1020.6mb 65f 64f
4:04 1.3ft 3s 13 16 mph 1020.2mb 66f 64f
3:04 1.6ft 5s 16 18 mph 1020mb 66f 64f
2:04 1.3ft 6s 13 16 mph 1019.6mb 66f 65f
1:04 0.7ft  -  7 9 mph 1019.7mb 65f 65f
12:04 1.3ft 6s 11 13 mph 1019.5mb 66f 65f
Di 07/19 11:04 0.7ft  -  9 11 mph 1019.4mb 66f 65f
10:04 1.3ft 6s 9 11 mph 1019.1mb 66f 66f
9:04 0.7ft  -  11 13 mph 1018.4mb 66f 67f
8:04 1ft 3s 9 11 mph 1018mb 66f 68f
7:04 1.3ft 3s 9 11 mph 1017.7mb 66f 69f
6:04 2ft 5s 9 13 mph 1017.2mb 66f 69f
5:04 1.6ft 3s 13
mph
1016.9mb 67f 70f
4:04 2ft 3s 11 13 mph 1016.7mb 67f 70f
3:04 1.3ft 8s 2 7 mph 1016.6mb 67f 70f
2:04 1.6ft 5s 2
mph
1016.5mb 67f 68f